Time,TemperatureF,DewpointF,PressureIn,WindDirection,WindDirectionDegrees,WindSpeedMPH,WindSpeedGustMPH,Humidity,HourlyPrecipIn,Conditions,Clouds,dailyrainin,SoftwareType,DateUTC
2013-01-02 00:04:00,35.2,31.5,30.11,ESE,119,0.0,3.0,86,0.00,,,0.00,meteohub,2013-01-02 08:04:00,
2013-01-02 00:09:00,35.2,31.5,30.11,ESE,119,0.0,2.0,86,0.00,,,0.00,meteohub,2013-01-02 08:09:00,
2013-01-02 00:14:00,35.2,31.5,30.11,ESE,119,0.0,2.0,86,0.00,,,0.00,meteohub,2013-01-02 08:14:00,
2013-01-02 00:19:00,35.2,31.5,30.11,ESE,119,0.0,3.0,86,0.00,,,0.00,meteohub,2013-01-02 08:19:00,
2013-01-02 00:24:00,35.4,31.6,30.11,ESE,119,0.0,3.0,86,0.00,,,0.00,meteohub,2013-01-02 08:24:00,
2013-01-02 00:29:00,36.0,31.3,30.11,ESE,119,0.0,2.0,83,0.00,,,0.00,meteohub,2013-01-02 08:29:00,
2013-01-02 00:34:00,36.3,31.3,30.11,ESE,119,2.0,3.0,82,0.00,,,0.00,meteohub,2013-01-02 08:34:00,
2013-01-02 00:39:00,36.7,31.6,30.11,ESE,119,0.0,3.0,82,0.00,,,0.00,meteohub,2013-01-02 08:39:00,
2013-01-02 00:44:00,37.4,32.2,30.11,ESE,119,0.0,3.0,81,0.00,,,0.00,meteohub,2013-01-02 08:44:00,
2013-01-02 00:49:00,37.9,31.5,30.11,ESE,119,0.0,2.0,77,0.00,,,0.00,meteohub,2013-01-02 08:49:00,
2013-01-02 00:54:00,38.5,31.6,30.11,ESE,119,0.0,2.0,76,0.00,,,0.00,meteohub,2013-01-02 08:54:00,
2013-01-02 00:59:00,39.0,31.8,30.11,ESE,119,0.0,3.0,75,0.00,,,0.00,meteohub,2013-01-02 08:59:00,
2013-01-02 01:04:00,39.6,30.6,30.11,ESE,119,1.0,4.0,70,0.00,,,0.00,meteohub,2013-01-02 09:04:00,
2013-01-02 01:09:00,39.9,31.3,30.09,ESE,119,0.0,4.0,71,0.00,,,0.00,meteohub,2013-01-02 09:09:00,
2013-01-02 01:14:00,40.1,31.1,30.09,ESE,119,0.0,3.0,70,0.00,,,0.00,meteohub,2013-01-02 09:14:00,
2013-01-02 01:19:00,39.9,31.6,30.09,ESE,119,0.0,3.0,72,0.00,,,0.00,meteohub,2013-01-02 09:19:00,
2013-01-02 01:24:00,39.9,30.2,30.09,ESE,119,1.0,3.0,68,0.00,,,0.00,meteohub,2013-01-02 09:24:00,
2013-01-02 01:29:00,40.8,30.7,30.09,ESE,119,1.0,3.0,67,0.00,,,0.00,meteohub,2013-01-02 09:29:00,
2013-01-02 01:34:00,41.2,31.1,30.09,ESE,119,0.0,3.0,67,0.00,,,0.00,meteohub,2013-01-02 09:34:00,
2013-01-02 01:39:00,41.2,30.4,30.09,ESE,119,0.0,3.0,65,0.00,,,0.00,meteohub,2013-01-02 09:39:00,
2013-01-02 01:44:00,41.0,30.6,30.09,ESE,119,0.0,3.0,66,0.00,,,0.00,meteohub,2013-01-02 09:44:00,
2013-01-02 01:49:00,40.6,30.6,30.09,ESE,119,1.0,3.0,67,0.00,,,0.00,meteohub,2013-01-02 09:49:00,
2013-01-02 01:55:00,40.5,30.7,30.09,ESE,119,0.0,3.0,68,0.00,,,0.00,meteohub,2013-01-02 09:55:00,
2013-01-02 02:00:00,40.6,29.5,30.09,ESE,119,0.0,3.0,64,0.00,,,0.00,meteohub,2013-01-02 10:00:00,
2013-01-02 02:05:00,41.5,29.5,30.09,ESE,119,4.0,4.0,62,0.00,,,0.00,meteohub,2013-01-02 10:05:00,
2013-01-02 02:10:00,43.0,28.8,30.09,ESE,119,3.0,5.0,57,0.00,,,0.00,meteohub,2013-01-02 10:10:00,
2013-01-02 02:15:00,43.3,30.0,30.09,ESE,119,0.0,5.0,59,0.00,,,0.00,meteohub,2013-01-02 10:15:00,
2013-01-02 02:20:00,44.6,28.9,30.09,ESE,119,5.0,7.0,54,0.00,,,0.00,meteohub,2013-01-02 10:20:00,
2013-01-02 02:25:00,45.0,28.4,30.09,ESE,119,1.0,7.0,52,0.00,,,0.00,meteohub,2013-01-02 10:25:00,
2013-01-02 02:30:00,45.0,28.4,30.09,ESE,119,3.0,7.0,52,0.00,,,0.00,meteohub,2013-01-02 10:30:00,
2013-01-02 02:35:00,45.0,28.4,30.09,ESE,119,2.0,7.0,52,0.00,,,0.00,meteohub,2013-01-02 10:35:00,
2013-01-02 02:40:00,44.4,29.3,30.09,ESE,119,3.0,5.0,55,0.00,,,0.00,meteohub,2013-01-02 10:40:00,
2013-01-02 02:45:00,44.2,27.3,30.09,ESE,119,1.0,4.0,51,0.00,,,0.00,meteohub,2013-01-02 10:45:00,
2013-01-02 02:50:00,44.8,29.7,30.09,ESE,119,2.0,5.0,55,0.00,,,0.00,meteohub,2013-01-02 10:50:00,
2013-01-02 02:55:00,44.4,28.8,30.09,ESE,119,0.0,5.0,54,0.00,,,0.00,meteohub,2013-01-02 10:55:00,
2013-01-02 03:00:00,44.1,29.8,30.09,ESE,119,1.0,5.0,57,0.00,,,0.00,meteohub,2013-01-02 11:00:00,
2013-01-02 03:05:00,43.3,30.0,30.09,ESE,119,1.0,4.0,59,0.00,,,0.00,meteohub,2013-01-02 11:05:00,
2013-01-02 03:10:00,43.2,29.3,30.09,ESE,119,3.0,4.0,58,0.00,,,0.00,meteohub,2013-01-02 11:10:00,
2013-01-02 03:15:00,43.2,29.3,30.09,ESE,119,1.0,4.0,58,0.00,,,0.00,meteohub,2013-01-02 11:15:00,
2013-01-02 03:20:00,43.2,29.8,30.09,ESE,119,0.0,4.0,59,0.00,,,0.00,meteohub,2013-01-02 11:20:00,
2013-01-02 03:25:00,42.6,29.3,30.08,ESE,118,0.0,5.0,59,0.00,,,0.00,meteohub,2013-01-02 11:25:00,
2013-01-02 03:30:00,42.3,28.6,30.08,ESE,118,2.0,5.0,58,0.00,,,0.00,meteohub,2013-01-02 11:30:00,
2013-01-02 03:35:00,42.1,30.0,30.08,ESE,118,0.0,5.0,62,0.00,,,0.00,meteohub,2013-01-02 11:35:00,
2013-01-02 03:40:00,41.7,29.7,30.08,ESE,118,0.0,5.0,62,0.00,,,0.00,meteohub,2013-01-02 11:40:00,
2013-01-02 03:45:00,41.4,29.3,30.08,ESE,118,0.0,2.0,62,0.00,,,0.00,meteohub,2013-01-02 11:45:00,
2013-01-02 03:50:00,41.2,29.5,30.08,ESE,118,0.0,2.0,63,0.00,,,0.00,meteohub,2013-01-02 11:50:00,
2013-01-02 03:55:00,41.2,30.4,30.08,ESE,118,0.0,2.0,65,0.00,,,0.00,meteohub,2013-01-02 11:55:00,
2013-01-02 04:00:00,41.2,30.0,30.08,ESE,118,0.0,3.0,64,0.00,,,0.00,meteohub,2013-01-02 12:00:00,
2013-01-02 04:05:00,41.4,29.7,30.08,ESE,118,0.0,3.0,63,0.00,,,0.00,meteohub,2013-01-02 12:05:00,
2013-01-02 04:10:00,41.2,29.5,30.08,ESE,118,0.0,3.0,63,0.00,,,0.00,meteohub,2013-01-02 12:10:00,
2013-01-02 04:15:00,40.8,29.7,30.08,ESE,118,0.0,3.0,64,0.00,,,0.00,meteohub,2013-01-02 12:15:00,
2013-01-02 04:20:00,40.8,30.0,30.08,ESE,118,2.0,3.0,65,0.00,,,0.00,meteohub,2013-01-02 12:20:00,
2013-01-02 04:25:00,41.0,29.3,30.07,ESE,118,0.0,3.0,63,0.00,,,0.00,meteohub,2013-01-02 12:25:00,
2013-01-02 04:30:00,40.6,28.2,30.07,ESE,118,0.0,3.0,61,0.00,,,0.00,meteohub,2013-01-02 12:30:00,
2013-01-02 04:35:00,40.6,29.1,30.07,ESE,118,0.0,3.0,63,0.00,,,0.00,meteohub,2013-01-02 12:35:00,
2013-01-02 04:40:00,40.6,29.1,30.06,ESE,118,0.0,3.0,63,0.00,,,0.00,meteohub,2013-01-02 12:40:00,
2013-01-02 04:45:00,40.3,28.2,30.06,ESE,118,0.0,4.0,62,0.00,,,0.00,meteohub,2013-01-02 12:45:00,
2013-01-02 04:50:00,39.7,28.6,30.06,ESE,118,0.0,4.0,64,0.00,,,0.00,meteohub,2013-01-02 12:50:00,
2013-01-02 04:55:00,39.4,28.2,30.06,ESE,118,0.0,3.0,64,0.00,,,0.00,meteohub,2013-01-02 12:55:00,
2013-01-02 05:00:00,38.8,28.8,30.06,ESE,118,0.0,3.0,67,0.00,,,0.00,meteohub,2013-01-02 13:00:00,
2013-01-02 05:06:00,38.1,28.9,30.06,ESE,118,0.0,3.0,69,0.00,,,0.00,meteohub,2013-01-02 13:06:00,
2013-01-02 05:11:00,37.4,28.6,30.07,ESE,118,0.0,2.0,70,0.00,,,0.00,meteohub,2013-01-02 13:11:00,
2013-01-02 05:16:00,36.9,28.8,30.07,ESE,118,0.0,1.0,72,0.00,,,0.00,meteohub,2013-01-02 13:16:00,
2013-01-02 05:21:00,36.1,28.4,30.07,ESE,118,0.0,0.0,73,0.00,,,0.00,meteohub,2013-01-02 13:21:00,
2013-01-02 05:26:00,35.8,28.4,30.07,ESE,118,0.0,0.0,74,0.00,,,0.00,meteohub,2013-01-02 13:26:00,
2013-01-02 05:31:00,35.1,28.6,30.07,ESE,118,0.0,0.0,77,0.00,,,0.00,meteohub,2013-01-02 13:31:00,
2013-01-02 05:36:00,34.7,28.6,30.07,ESE,118,0.0,0.0,78,0.00,,,0.00,meteohub,2013-01-02 13:36:00,
2013-01-02 05:41:00,34.3,28.6,30.07,ESE,118,0.0,1.0,79,0.00,,,0.00,meteohub,2013-01-02 13:41:00,
2013-01-02 05:46:00,34.2,28.6,30.07,ESE,118,0.0,1.0,80,0.00,,,0.00,meteohub,2013-01-02 13:46:00,
2013-01-02 05:51:00,34.2,28.6,30.07,ESE,118,0.0,1.0,80,0.00,,,0.00,meteohub,2013-01-02 13:51:00,
2013-01-02 05:56:00,34.0,28.4,30.07,ESE,118,0.0,0.0,80,0.00,,,0.00,meteohub,2013-01-02 13:56:00,
2013-01-02 06:01:00,33.8,28.2,30.07,ESE,118,0.0,1.0,80,0.00,,,0.00,meteohub,2013-01-02 14:01:00,
2013-01-02 06:06:00,33.4,28.2,30.07,ESE,118,0.0,1.0,81,0.00,,,0.00,meteohub,2013-01-02 14:06:00,
2013-01-02 06:11:00,33.3,28.0,30.08,ESE,118,0.0,1.0,81,0.00,,,0.00,meteohub,2013-01-02 14:11:00,
2013-01-02 06:16:00,33.1,28.2,30.08,ESE,118,0.0,1.0,82,0.00,,,0.00,meteohub,2013-01-02 14:16:00,
2013-01-02 06:21:00,32.9,28.0,30.08,ESE,118,0.0,2.0,82,0.00,,,0.00,meteohub,2013-01-02 14:21:00,
2013-01-02 06:26:00,32.9,28.6,30.08,ESE,118,0.0,2.0,84,0.00,,,0.00,meteohub,2013-01-02 14:26:00,
2013-01-02 06:31:00,32.7,28.2,30.08,ESE,118,0.0,2.0,83,0.00,,,0.00,meteohub,2013-01-02 14:31:00,
2013-01-02 06:36:00,32.5,28.2,30.08,ESE,118,0.0,0.0,84,0.00,,,0.00,meteohub,2013-01-02 14:36:00,
2013-01-02 06:41:00,32.5,28.2,30.08,ESE,118,0.0,0.0,84,0.00,,,0.00,meteohub,2013-01-02 14:41:00,
2013-01-02 06:46:00,32.4,28.0,30.08,ESE,118,0.0,0.0,84,0.00,,,0.00,meteohub,2013-01-02 14:46:00,
2013-01-02 06:51:00,32.2,28.2,30.08,ESE,118,1.0,0.0,85,0.00,,,0.00,meteohub,2013-01-02 14:51:00,
2013-01-02 06:56:00,32.2,28.4,30.08,ESE,118,0.0,2.0,86,0.00,,,0.00,meteohub,2013-01-02 14:56:00,
2013-01-02 07:01:00,32.4,28.6,30.08,ESE,118,0.0,2.0,86,0.00,,,0.00,meteohub,2013-01-02 15:01:00,
2013-01-02 07:06:00,32.4,28.9,30.08,ESE,118,0.0,2.0,87,0.00,,,0.00,meteohub,2013-01-02 15:06:00,
2013-01-02 07:11:00,32.7,28.8,30.08,ESE,118,0.0,1.0,85,0.00,,,0.00,meteohub,2013-01-02 15:11:00,
2013-01-02 07:16:00,33.4,28.8,30.08,ESE,113,3.0,3.0,83,0.00,,,0.00,meteohub,2013-01-02 15:16:00,
2013-01-02 07:21:00,34.0,29.1,30.08,ESE,107,3.0,4.0,82,0.00,,,0.00,meteohub,2013-01-02 15:21:00,
2013-01-02 07:26:00,34.2,29.3,30.08,ESE,106,1.0,4.0,82,0.00,,,0.00,meteohub,2013-01-02 15:26:00,
2013-01-02 07:31:00,34.3,29.5,30.08,ESE,106,1.0,4.0,82,0.00,,,0.00,meteohub,2013-01-02 15:31:00,
2013-01-02 07:36:00,34.5,29.7,30.08,ESE,106,1.0,4.0,82,0.00,,,0.00,meteohub,2013-01-02 15:36:00,
2013-01-02 07:41:00,34.7,29.5,30.09,ESE,106,0.0,4.0,81,0.00,,,0.00,meteohub,2013-01-02 15:41:00,
2013-01-02 07:47:00,34.5,29.3,30.09,ESE,106,0.0,4.0,81,0.00,,,0.00,meteohub,2013-01-02 15:47:00,
2013-01-02 07:52:00,34.3,29.1,30.09,ESE,106,0.0,2.0,81,0.00,,,0.00,meteohub,2013-01-02 15:52:00,
2013-01-02 07:57:00,33.8,28.9,30.09,ESE,106,0.0,1.0,82,0.00,,,0.00,meteohub,2013-01-02 15:57:00,
2013-01-02 08:02:00,33.4,28.6,30.09,ESE,106,0.0,0.0,82,0.00,,,0.00,meteohub,2013-01-02 16:02:00,
2013-01-02 08:07:00,33.1,28.4,30.09,ESE,106,0.0,1.0,83,0.00,,,0.00,meteohub,2013-01-02 16:07:00,
2013-01-02 08:12:00,32.9,28.6,30.10,ESE,106,0.0,1.0,84,0.00,,,0.00,meteohub,2013-01-02 16:12:00,
2013-01-02 08:17:00,32.7,28.8,30.10,ESE,106,0.0,1.0,85,0.00,,,0.00,meteohub,2013-01-02 16:17:00,
2013-01-02 08:22:00,32.5,28.6,30.10,ESE,106,0.0,0.0,85,0.00,,,0.00,meteohub,2013-01-02 16:22:00,
2013-01-02 08:27:00,32.7,28.9,30.10,ESE,106,0.0,0.0,86,0.00,,,0.00,meteohub,2013-01-02 16:27:00,
2013-01-02 08:32:00,32.9,29.5,30.10,ESE,106,0.0,0.0,87,0.00,,,0.00,meteohub,2013-01-02 16:32:00,
2013-01-02 08:37:00,33.6,30.4,30.10,ESE,106,0.0,1.0,88,0.00,,,0.00,meteohub,2013-01-02 16:37:00,
2013-01-02 08:42:00,34.3,30.6,30.10,ESE,106,0.0,1.0,86,0.00,,,0.00,meteohub,2013-01-02 16:42:00,
2013-01-02 08:47:00,35.1,30.9,30.10,ESE,106,0.0,1.0,85,0.00,,,0.00,meteohub,2013-01-02 16:47:00,
2013-01-02 08:52:00,35.4,30.7,30.10,ESE,106,0.0,1.0,83,0.00,,,0.00,meteohub,2013-01-02 16:52:00,
2013-01-02 08:57:00,35.8,31.1,30.10,ESE,106,0.0,1.0,83,0.00,,,0.00,meteohub,2013-01-02 16:57:00,
2013-01-02 09:02:00,36.0,30.9,30.10,ESE,106,0.0,1.0,82,0.00,,,0.00,meteohub,2013-01-02 17:02:00,
2013-01-02 09:07:00,36.1,31.1,30.10,ESE,106,0.0,0.0,82,0.00,,,0.00,meteohub,2013-01-02 17:07:00,
2013-01-02 09:12:00,36.5,31.5,30.11,ESE,106,0.0,0.0,82,0.00,,,0.00,meteohub,2013-01-02 17:12:00,
2013-01-02 09:17:00,36.9,31.8,30.11,ESE,106,0.0,0.0,82,0.00,,,0.00,meteohub,2013-01-02 17:17:00,
2013-01-02 09:22:00,37.2,32.0,30.11,ESE,106,0.0,0.0,81,0.00,,,0.00,meteohub,2013-01-02 17:22:00,
2013-01-02 09:27:00,37.6,31.6,30.11,ESE,106,0.0,0.0,79,0.00,,,0.00,meteohub,2013-01-02 17:27:00,
2013-01-02 09:32:00,37.9,31.5,30.11,ESE,106,0.0,0.0,77,0.00,,,0.00,meteohub,2013-01-02 17:32:00,
2013-01-02 09:37:00,38.1,31.8,30.11,ESE,106,0.0,0.0,78,0.00,,,0.00,meteohub,2013-01-02 17:37:00,
2013-01-02 09:42:00,38.5,31.8,30.11,ESE,106,0.0,0.0,77,0.00,,,0.00,meteohub,2013-01-02 17:42:00,
2013-01-02 09:47:00,38.8,32.5,30.11,ESE,106,0.0,1.0,78,0.00,,,0.00,meteohub,2013-01-02 17:47:00,
2013-01-02 09:52:00,39.0,32.4,30.11,ESE,106,0.0,1.0,77,0.00,,,0.00,meteohub,2013-01-02 17:52:00,
2013-01-02 09:57:00,39.4,32.5,30.12,ESE,106,0.0,0.0,76,0.00,,,0.00,meteohub,2013-01-02 17:57:00,
2013-01-02 10:02:00,39.6,32.9,30.12,ESE,106,0.0,0.0,77,0.00,,,0.00,meteohub,2013-01-02 18:02:00,
2013-01-02 10:07:00,39.7,33.4,30.12,ESE,106,0.0,0.0,78,0.00,,,0.00,meteohub,2013-01-02 18:07:00,
2013-01-02 10:12:00,39.9,33.3,30.12,ESE,106,0.0,0.0,77,0.00,,,0.00,meteohub,2013-01-02 18:12:00,
2013-01-02 10:17:00,40.1,33.1,30.12,ESE,106,0.0,0.0,76,0.00,,,0.00,meteohub,2013-01-02 18:17:00,
2013-01-02 10:22:00,40.5,33.8,30.12,ESE,106,0.0,0.0,77,0.00,,,0.00,meteohub,2013-01-02 18:22:00,
2013-01-02 10:27:00,40.6,34.0,30.12,ESE,106,0.0,0.0,77,0.00,,,0.00,meteohub,2013-01-02 18:27:00,
2013-01-02 10:32:00,41.0,35.2,30.12,ESE,106,0.0,0.0,80,0.00,,,0.00,meteohub,2013-01-02 18:32:00,
2013-01-02 10:37:00,41.4,35.1,30.12,ESE,106,0.0,1.0,78,0.00,,,0.00,meteohub,2013-01-02 18:37:00,
2013-01-02 10:42:00,42.1,35.1,30.12,ESE,106,0.0,1.0,76,0.00,,,0.00,meteohub,2013-01-02 18:42:00,
2013-01-02 10:47:00,42.4,35.4,30.12,ESE,106,0.0,1.0,76,0.00,,,0.00,meteohub,2013-01-02 18:47:00,
2013-01-02 10:52:00,43.0,35.2,30.12,ESE,106,0.0,0.0,74,0.00,,,0.00,meteohub,2013-01-02 18:52:00,
2013-01-02 10:57:00,43.5,36.5,30.11,ESE,106,0.0,0.0,76,0.00,,,0.00,meteohub,2013-01-02 18:57:00,
2013-01-02 11:03:00,43.9,36.1,30.11,ESE,106,0.0,0.0,74,0.00,,,0.00,meteohub,2013-01-02 19:03:00,
2013-01-02 11:08:00,44.1,36.3,30.11,ESE,106,1.0,0.0,74,0.00,,,0.00,meteohub,2013-01-02 19:08:00,
2013-01-02 11:13:00,44.2,36.1,30.10,ESE,106,0.0,1.0,73,0.00,,,0.00,meteohub,2013-01-02 19:13:00,
2013-01-02 11:18:00,44.6,36.1,30.10,ESE,106,0.0,1.0,72,0.00,,,0.00,meteohub,2013-01-02 19:18:00,
2013-01-02 11:23:00,45.0,36.9,30.10,ESE,106,0.0,1.0,73,0.00,,,0.00,meteohub,2013-01-02 19:23:00,
2013-01-02 11:28:00,45.1,36.7,30.09,ESE,106,1.0,1.0,72,0.00,,,0.00,meteohub,2013-01-02 19:28:00,
2013-01-02 11:33:00,45.3,36.9,30.09,ESE,106,0.0,1.0,72,0.00,,,0.00,meteohub,2013-01-02 19:33:00,
2013-01-02 11:38:00,45.7,37.2,30.09,ESE,106,0.0,1.0,72,0.00,,,0.00,meteohub,2013-01-02 19:38:00,
2013-01-02 11:43:00,46.0,37.6,30.09,ESE,106,0.0,1.0,72,0.00,,,0.00,meteohub,2013-01-02 19:43:00,
2013-01-02 11:48:00,46.2,37.8,30.09,ESE,106,0.0,1.0,72,0.00,,,0.00,meteohub,2013-01-02 19:48:00,
2013-01-02 11:53:00,46.8,38.5,30.08,ESE,106,0.0,1.0,73,0.00,,,0.00,meteohub,2013-01-02 19:53:00,
2013-01-02 11:58:00,46.9,38.1,30.08,ESE,106,0.0,2.0,71,0.00,,,0.00,meteohub,2013-01-02 19:58:00,
2013-01-02 12:03:00,47.1,37.8,30.08,ESE,106,1.0,2.0,70,0.00,,,0.00,meteohub,2013-01-02 20:03:00,
2013-01-02 12:08:00,47.7,36.9,30.07,ESE,106,0.0,2.0,66,0.00,,,0.00,meteohub,2013-01-02 20:08:00,
2013-01-02 12:13:00,47.8,37.8,30.07,ESE,106,0.0,2.0,68,0.00,,,0.00,meteohub,2013-01-02 20:13:00,
2013-01-02 12:18:00,48.4,34.3,30.07,ESE,105,0.0,1.0,58,0.00,,,0.00,meteohub,2013-01-02 20:18:00,
2013-01-02 12:23:00,49.1,35.8,30.06,East,101,1.0,5.0,60,0.00,,,0.00,meteohub,2013-01-02 20:23:00,
2013-01-02 12:28:00,49.5,36.5,30.06,East,101,0.0,5.0,61,0.00,,,0.00,meteohub,2013-01-02 20:28:00,
2013-01-02 12:33:00,49.3,36.0,30.06,East,101,1.0,5.0,60,0.00,,,0.00,meteohub,2013-01-02 20:33:00,
2013-01-02 12:38:00,49.3,37.2,30.05,East,101,0.0,2.0,63,0.00,,,0.00,meteohub,2013-01-02 20:38:00,
2013-01-02 12:43:00,49.5,37.4,30.05,East,101,0.0,3.0,63,0.00,,,0.00,meteohub,2013-01-02 20:43:00,
2013-01-02 12:48:00,49.3,37.2,30.05,East,101,1.0,3.0,63,0.00,,,0.00,meteohub,2013-01-02 20:48:00,
2013-01-02 12:53:00,49.5,37.0,30.05,East,100,0.0,1.0,62,0.00,,,0.00,meteohub,2013-01-02 20:53:00,
2013-01-02 12:58:00,49.6,36.3,30.05,East,100,0.0,3.0,60,0.00,,,0.00,meteohub,2013-01-02 20:58:00,
2013-01-02 13:03:00,49.6,37.6,30.05,East,100,0.0,3.0,63,0.00,,,0.00,meteohub,2013-01-02 21:03:00,
2013-01-02 13:08:00,49.5,38.1,30.04,East,100,0.0,3.0,65,0.00,,,0.00,meteohub,2013-01-02 21:08:00,
2013-01-02 13:13:00,49.5,37.8,30.04,East,100,0.0,2.0,64,0.00,,,0.00,meteohub,2013-01-02 21:13:00,
2013-01-02 13:18:00,49.5,36.1,30.04,East,100,0.0,2.0,60,0.00,,,0.00,meteohub,2013-01-02 21:18:00,
2013-01-02 13:23:00,49.6,38.7,30.04,East,100,0.0,3.0,66,0.00,,,0.00,meteohub,2013-01-02 21:23:00,
2013-01-02 13:29:00,49.6,37.2,30.04,East,100,2.0,3.0,62,0.00,,,0.00,meteohub,2013-01-02 21:29:00,
2013-01-02 13:34:00,49.8,37.4,30.04,East,100,0.0,3.0,62,0.00,,,0.00,meteohub,2013-01-02 21:34:00,
2013-01-02 13:39:00,49.8,36.9,30.03,East,100,0.0,4.0,61,0.00,,,0.00,meteohub,2013-01-02 21:39:00,
2013-01-02 13:44:00,49.6,37.2,30.03,East,100,0.0,4.0,62,0.00,,,0.00,meteohub,2013-01-02 21:44:00,
2013-01-02 13:49:00,49.6,36.7,30.03,East,100,0.0,4.0,61,0.00,,,0.00,meteohub,2013-01-02 21:49:00,
2013-01-02 13:54:00,49.6,37.9,30.03,East,100,1.0,2.0,64,0.00,,,0.00,meteohub,2013-01-02 21:54:00,
2013-01-02 13:59:00,49.5,38.1,30.03,East,100,0.0,2.0,65,0.00,,,0.00,meteohub,2013-01-02 21:59:00,
2013-01-02 14:04:00,49.5,37.8,30.03,East,100,0.0,2.0,64,0.00,,,0.00,meteohub,2013-01-02 22:04:00,
2013-01-02 14:09:00,49.5,38.7,30.03,East,100,1.0,2.0,66,0.00,,,0.00,meteohub,2013-01-02 22:09:00,
2013-01-02 14:14:00,49.5,37.0,30.03,East,100,0.0,1.0,62,0.00,,,0.00,meteohub,2013-01-02 22:14:00,
2013-01-02 14:19:00,49.8,37.8,30.03,East,100,0.0,1.0,63,0.00,,,0.00,meteohub,2013-01-02 22:19:00,
2013-01-02 14:24:00,50.2,37.2,30.03,East,92,0.0,2.0,61,0.00,,,0.00,meteohub,2013-01-02 22:24:00,
2013-01-02 14:29:00,50.5,37.6,30.03,East,91,0.0,5.0,61,0.00,,,0.00,meteohub,2013-01-02 22:29:00,
2013-01-02 14:34:00,50.7,37.8,30.03,East,92,0.0,5.0,61,0.00,,,0.00,meteohub,2013-01-02 22:34:00,
2013-01-02 14:39:00,50.5,38.8,30.02,East,91,0.0,5.0,64,0.00,,,0.00,meteohub,2013-01-02 22:39:00,
2013-01-02 14:44:00,50.4,39.0,30.02,East,92,0.0,3.0,65,0.00,,,0.00,meteohub,2013-01-02 22:44:00,
2013-01-02 14:49:00,50.2,38.8,30.02,East,92,0.0,2.0,65,0.00,,,0.00,meteohub,2013-01-02 22:49:00,
2013-01-02 14:54:00,49.8,38.5,30.02,East,92,0.0,2.0,65,0.00,,,0.00,meteohub,2013-01-02 22:54:00,
2013-01-02 14:59:00,49.8,37.4,30.02,East,91,0.0,3.0,62,0.00,,,0.00,meteohub,2013-01-02 22:59:00,
2013-01-02 15:04:00,49.8,38.5,30.02,East,91,0.0,4.0,65,0.00,,,0.00,meteohub,2013-01-02 23:04:00,
2013-01-02 15:09:00,49.6,38.7,30.02,East,91,0.0,4.0,66,0.00,,,0.00,meteohub,2013-01-02 23:09:00,
2013-01-02 15:14:00,49.5,38.1,30.02,East,91,1.0,4.0,65,0.00,,,0.00,meteohub,2013-01-02 23:14:00,
2013-01-02 15:19:00,49.5,38.7,30.02,East,91,0.0,2.0,66,0.00,,,0.00,meteohub,2013-01-02 23:19:00,
2013-01-02 15:24:00,49.3,39.2,30.02,East,91,0.0,2.0,68,0.00,,,0.00,meteohub,2013-01-02 23:24:00,
2013-01-02 15:29:00,48.9,39.9,30.02,East,91,0.0,2.0,71,0.00,,,0.00,meteohub,2013-01-02 23:29:00,
2013-01-02 15:34:00,48.7,39.7,30.02,East,91,0.0,0.0,71,0.00,,,0.00,meteohub,2013-01-02 23:34:00,
2013-01-02 15:39:00,48.6,39.6,30.03,East,91,0.0,0.0,71,0.00,,,0.00,meteohub,2013-01-02 23:39:00,
2013-01-02 15:44:00,48.6,39.2,30.03,East,91,0.0,1.0,70,0.00,,,0.00,meteohub,2013-01-02 23:44:00,
2013-01-02 15:49:00,48.6,39.2,30.03,East,91,0.0,1.0,70,0.00,,,0.00,meteohub,2013-01-02 23:49:00,
2013-01-02 15:54:00,48.6,39.2,30.03,East,91,0.0,2.0,70,0.00,,,0.00,meteohub,2013-01-02 23:54:00,
2013-01-02 15:59:00,48.4,39.0,30.03,East,91,0.0,2.0,70,0.00,,,0.00,meteohub,2013-01-02 23:59:00,
2013-01-02 16:04:00,48.4,39.4,30.03,East,91,0.0,2.0,71,0.00,,,0.00,meteohub,2013-01-03 00:04:00,
2013-01-02 16:09:00,48.4,39.7,30.03,East,91,0.0,1.0,72,0.00,,,0.00,meteohub,2013-01-03 00:09:00,
2013-01-02 16:14:00,48.2,39.9,30.03,East,91,0.0,1.0,73,0.00,,,0.00,meteohub,2013-01-03 00:14:00,
2013-01-02 16:19:00,47.7,39.7,30.03,East,91,0.0,1.0,74,0.00,,,0.00,meteohub,2013-01-03 00:19:00,
2013-01-02 16:24:00,47.1,39.6,30.03,East,91,0.0,1.0,75,0.00,,,0.00,meteohub,2013-01-03 00:24:00,
2013-01-02 16:29:00,46.6,39.4,30.03,East,91,0.0,0.0,76,0.00,,,0.00,meteohub,2013-01-03 00:29:00,
2013-01-02 16:35:00,46.0,39.6,30.03,East,91,0.0,0.0,78,0.00,,,0.00,meteohub,2013-01-03 00:35:00,
2013-01-02 16:40:00,45.7,39.2,30.03,East,91,0.0,0.0,78,0.00,,,0.00,meteohub,2013-01-03 00:40:00,
2013-01-02 16:45:00,45.1,39.0,30.03,East,91,0.0,0.0,79,0.00,,,0.00,meteohub,2013-01-03 00:45:00,
2013-01-02 16:50:00,44.8,38.7,30.03,East,91,0.0,0.0,79,0.00,,,0.00,meteohub,2013-01-03 00:50:00,
2013-01-02 16:55:00,44.4,38.7,30.03,East,91,0.0,0.0,80,0.00,,,0.00,meteohub,2013-01-03 00:55:00,
2013-01-02 17:00:00,44.1,38.3,30.03,East,91,0.0,0.0,80,0.00,,,0.00,meteohub,2013-01-03 01:00:00,
2013-01-02 17:05:00,43.9,38.5,30.03,East,91,0.0,1.0,81,0.00,,,0.00,meteohub,2013-01-03 01:05:00,
2013-01-02 17:10:00,44.1,37.9,30.02,East,91,0.0,1.0,79,0.00,,,0.00,meteohub,2013-01-03 01:10:00,
2013-01-02 17:15:00,44.2,37.6,30.02,East,91,0.0,1.0,77,0.00,,,0.00,meteohub,2013-01-03 01:15:00,
2013-01-02 17:20:00,44.2,37.8,30.02,East,91,0.0,1.0,78,0.00,,,0.00,meteohub,2013-01-03 01:20:00,
2013-01-02 17:25:00,44.2,37.8,30.03,East,91,0.0,1.0,78,0.00,,,0.00,meteohub,2013-01-03 01:25:00,
2013-01-02 17:30:00,44.2,37.8,30.03,East,91,0.0,1.0,78,0.00,,,0.00,meteohub,2013-01-03 01:30:00,
2013-01-02 17:35:00,44.1,37.6,30.03,East,91,0.0,1.0,78,0.00,,,0.00,meteohub,2013-01-03 01:35:00,
2013-01-02 17:40:00,43.7,37.6,30.03,East,91,0.0,1.0,79,0.00,,,0.00,meteohub,2013-01-03 01:40:00,
2013-01-02 17:45:00,43.3,37.6,30.03,East,91,0.0,1.0,80,0.00,,,0.00,meteohub,2013-01-03 01:45:00,
2013-01-02 17:50:00,43.0,36.7,30.03,East,91,0.0,0.0,78,0.00,,,0.00,meteohub,2013-01-03 01:50:00,
2013-01-02 17:55:00,42.4,37.0,30.03,East,91,0.0,0.0,81,0.00,,,0.00,meteohub,2013-01-03 01:55:00,
2013-01-02 18:00:00,42.1,36.7,30.03,East,91,0.0,0.0,81,0.00,,,0.00,meteohub,2013-01-03 02:00:00,
2013-01-02 18:05:00,41.5,36.5,30.03,East,91,0.0,0.0,82,0.00,,,0.00,meteohub,2013-01-03 02:05:00,
2013-01-02 18:10:00,41.5,36.7,30.04,East,91,0.0,0.0,83,0.00,,,0.00,meteohub,2013-01-03 02:10:00,
2013-01-02 18:15:00,41.2,36.5,30.04,East,91,0.0,0.0,83,0.00,,,0.00,meteohub,2013-01-03 02:15:00,
2013-01-02 18:20:00,40.8,36.1,30.04,East,91,0.0,0.0,83,0.00,,,0.00,meteohub,2013-01-03 02:20:00,
2013-01-02 18:25:00,40.5,36.3,30.04,East,91,0.0,0.0,85,0.00,,,0.00,meteohub,2013-01-03 02:25:00,
2013-01-02 18:30:00,40.3,36.1,30.04,East,91,0.0,0.0,85,0.00,,,0.00,meteohub,2013-01-03 02:30:00,
2013-01-02 18:35:00,39.9,35.8,30.04,East,91,0.0,0.0,85,0.00,,,0.00,meteohub,2013-01-03 02:35:00,
2013-01-02 18:40:00,39.7,36.0,30.04,East,91,0.0,0.0,86,0.00,,,0.00,meteohub,2013-01-03 02:40:00,
2013-01-02 18:45:00,39.4,35.2,30.04,East,91,0.0,0.0,85,0.00,,,0.00,meteohub,2013-01-03 02:45:00,
2013-01-02 18:50:00,39.2,35.4,30.04,East,91,0.0,0.0,86,0.00,,,0.00,meteohub,2013-01-03 02:50:00,
2013-01-02 18:55:00,39.0,35.4,30.04,East,91,0.0,0.0,87,0.00,,,0.00,meteohub,2013-01-03 02:55:00,
2013-01-02 19:00:00,38.8,35.2,30.04,East,91,0.0,0.0,87,0.00,,,0.00,meteohub,2013-01-03 03:00:00,
2013-01-02 19:05:00,38.7,35.4,30.04,East,91,0.0,0.0,88,0.00,,,0.00,meteohub,2013-01-03 03:05:00,
2013-01-02 19:10:00,38.5,35.6,30.04,East,91,0.0,0.0,89,0.00,,,0.00,meteohub,2013-01-03 03:10:00,
2013-01-02 19:15:00,38.5,35.6,30.04,East,91,0.0,0.0,89,0.00,,,0.00,meteohub,2013-01-03 03:15:00,
2013-01-02 19:20:00,38.3,35.4,30.04,East,91,0.0,0.0,89,0.00,,,0.00,meteohub,2013-01-03 03:20:00,
2013-01-02 19:25:00,38.1,35.4,30.04,East,91,0.0,0.0,90,0.00,,,0.00,meteohub,2013-01-03 03:25:00,
2013-01-02 19:30:00,38.1,35.2,30.04,East,91,0.0,0.0,89,0.00,,,0.00,meteohub,2013-01-03 03:30:00,
2013-01-02 19:37:00,37.9,35.1,30.04,East,91,0.0,0.0,89,0.00,,,0.00,meteohub,2013-01-03 03:37:00,
2013-01-02 19:43:00,37.8,35.1,30.04,East,91,0.0,0.0,90,0.00,,,0.00,meteohub,2013-01-03 03:43:00,
2013-01-02 19:48:00,37.6,34.9,30.04,East,91,0.0,0.0,90,0.00,,,0.00,meteohub,2013-01-03 03:48:00,
2013-01-02 19:53:00,37.6,35.2,30.04,East,91,0.0,0.0,91,0.00,,,0.00,meteohub,2013-01-03 03:53:00,
2013-01-02 19:58:00,37.4,35.1,30.04,East,91,0.0,0.0,91,0.00,,,0.00,meteohub,2013-01-03 03:58:00,
2013-01-02 20:03:00,37.2,34.9,30.04,East,91,0.0,0.0,91,0.00,,,0.00,meteohub,2013-01-03 04:03:00,
2013-01-02 20:08:00,37.4,35.1,30.04,East,91,0.0,0.0,91,0.00,,,0.00,meteohub,2013-01-03 04:08:00,
2013-01-02 20:13:00,37.2,34.5,30.05,East,91,0.0,0.0,90,0.00,,,0.00,meteohub,2013-01-03 04:13:00,
2013-01-02 20:18:00,37.0,34.7,30.05,East,91,0.0,0.0,91,0.00,,,0.00,meteohub,2013-01-03 04:18:00,
2013-01-02 20:23:00,37.0,34.7,30.05,East,91,0.0,0.0,91,0.00,,,0.00,meteohub,2013-01-03 04:23:00,
2013-01-02 20:28:00,37.0,34.9,30.04,East,91,0.0,0.0,92,0.00,,,0.00,meteohub,2013-01-03 04:28:00,
2013-01-02 20:33:00,36.9,34.7,30.04,East,91,0.0,0.0,92,0.00,,,0.00,meteohub,2013-01-03 04:33:00,
2013-01-02 20:38:00,36.9,34.7,30.04,East,91,0.0,0.0,92,0.00,,,0.00,meteohub,2013-01-03 04:38:00,
2013-01-02 20:43:00,36.9,34.5,30.04,East,91,0.0,0.0,91,0.00,,,0.00,meteohub,2013-01-03 04:43:00,
2013-01-02 20:48:00,36.7,34.3,30.04,East,91,0.0,0.0,91,0.00,,,0.00,meteohub,2013-01-03 04:48:00,
2013-01-02 20:53:00,36.7,34.5,30.04,East,91,0.0,0.0,92,0.00,,,0.00,meteohub,2013-01-03 04:53:00,
2013-01-02 20:58:00,36.7,34.5,30.04,East,91,0.0,0.0,92,0.00,,,0.00,meteohub,2013-01-03 04:58:00,
2013-01-02 21:00:00,36.5,34.3,30.04,East,91,0.0,0.0,92,0.00,,,0.00,meteohub,2013-01-03 05:00:00,
2013-01-02 21:02:00,36.5,34.3,30.04,East,91,0.0,0.0,92,0.00,,,0.00,meteohub,2013-01-03 05:02:00,
2013-01-02 21:12:00,36.5,34.7,30.05,East,91,0.0,0.0,93,0.00,,,0.00,meteohub,2013-01-03 05:12:00,
2013-01-02 21:15:00,36.3,34.5,30.05,East,91,0.0,0.0,93,0.00,,,0.00,meteohub,2013-01-03 05:15:00,
2013-01-02 21:20:00,36.3,34.5,30.05,East,91,0.0,0.0,93,0.00,,,0.00,meteohub,2013-01-03 05:20:00,
2013-01-02 21:25:00,36.3,34.5,30.05,East,91,0.0,0.0,93,0.00,,,0.00,meteohub,2013-01-03 05:25:00,
2013-01-02 21:30:00,36.1,34.3,30.05,East,91,0.0,0.0,93,0.00,,,0.00,meteohub,2013-01-03 05:30:00,
2013-01-02 21:35:00,36.1,34.3,30.05,East,91,0.0,0.0,93,0.00,,,0.00,meteohub,2013-01-03 05:35:00,
2013-01-02 21:40:00,36.0,34.2,30.06,East,91,0.0,0.0,93,0.00,,,0.00,meteohub,2013-01-03 05:40:00,
2013-01-02 21:45:00,35.8,33.6,30.06,East,91,0.0,0.0,92,0.00,,,0.00,meteohub,2013-01-03 05:45:00,
2013-01-02 21:50:00,35.4,33.6,30.06,East,91,0.0,0.0,93,0.00,,,0.00,meteohub,2013-01-03 05:50:00,
2013-01-02 21:55:00,35.4,33.6,30.06,East,91,0.0,0.0,93,0.00,,,0.00,meteohub,2013-01-03 05:55:00,
2013-01-02 22:00:00,35.4,33.8,30.06,East,91,0.0,0.0,94,0.00,,,0.00,meteohub,2013-01-03 06:00:00,
2013-01-02 22:05:00,35.2,33.4,30.06,East,91,0.0,0.0,93,0.00,,,0.00,meteohub,2013-01-03 06:05:00,
2013-01-02 22:10:00,35.2,33.6,30.06,East,91,0.0,0.0,94,0.00,,,0.00,meteohub,2013-01-03 06:10:00,
2013-01-02 22:15:00,35.2,33.6,30.06,East,91,0.0,0.0,94,0.00,,,0.00,meteohub,2013-01-03 06:15:00,
2013-01-02 22:20:00,35.2,33.6,30.06,East,91,0.0,0.0,94,0.00,,,0.00,meteohub,2013-01-03 06:20:00,
2013-01-02 22:25:00,35.2,33.6,30.06,East,91,0.0,0.0,94,0.00,,,0.00,meteohub,2013-01-03 06:25:00,
2013-01-02 22:30:00,35.2,33.6,30.06,East,91,0.0,0.0,94,0.00,,,0.00,meteohub,2013-01-03 06:30:00,
2013-01-02 22:35:00,35.2,33.6,30.06,East,91,0.0,0.0,94,0.00,,,0.00,meteohub,2013-01-03 06:35:00,
2013-01-02 22:40:00,35.2,33.6,30.06,East,91,0.0,0.0,94,0.00,,,0.00,meteohub,2013-01-03 06:40:00,
2013-01-02 22:45:00,35.1,33.4,30.06,East,91,0.0,0.0,94,0.00,,,0.00,meteohub,2013-01-03 06:45:00,
2013-01-02 22:50:00,35.1,33.4,30.06,East,91,0.0,0.0,94,0.00,,,0.00,meteohub,2013-01-03 06:50:00,
2013-01-02 22:55:00,35.1,33.4,30.06,East,91,0.0,0.0,94,0.00,,,0.00,meteohub,2013-01-03 06:55:00,
2013-01-02 23:00:00,35.1,33.4,30.06,East,91,0.0,0.0,94,0.00,,,0.00,meteohub,2013-01-03 07:00:00,
2013-01-02 23:05:00,34.9,33.3,30.06,East,91,0.0,0.0,94,0.00,,,0.00,meteohub,2013-01-03 07:05:00,
2013-01-02 23:10:00,34.9,33.3,30.05,East,91,0.0,0.0,94,0.00,,,0.00,meteohub,2013-01-03 07:10:00,
2013-01-02 23:15:00,34.7,33.1,30.05,East,91,0.0,0.0,94,0.00,,,0.00,meteohub,2013-01-03 07:15:00,
2013-01-02 23:20:00,34.9,33.3,30.05,East,91,0.0,0.0,94,0.00,,,0.00,meteohub,2013-01-03 07:20:00,
2013-01-02 23:25:00,34.9,33.6,30.05,East,91,0.0,0.0,95,0.00,,,0.00,meteohub,2013-01-03 07:25:00,
2013-01-02 23:30:00,35.1,33.8,30.05,East,91,0.0,0.0,95,0.00,,,0.00,meteohub,2013-01-03 07:30:00,
2013-01-02 23:36:00,35.1,33.8,30.05,East,91,0.0,0.0,95,0.00,,,0.00,meteohub,2013-01-03 07:36:00,
2013-01-02 23:41:00,34.9,33.3,30.05,East,91,0.0,0.0,94,0.00,,,0.00,meteohub,2013-01-03 07:41:00,
2013-01-02 23:46:00,34.7,33.1,30.05,East,91,0.0,0.0,94,0.00,,,0.00,meteohub,2013-01-03 07:46:00,
2013-01-02 23:51:00,34.5,32.9,30.05,East,91,0.0,0.0,94,0.00,,,0.00,meteohub,2013-01-03 07:51:00,
2013-01-02 23:56:00,34.5,32.9,30.05,East,91,0.0,0.0,94,0.00,,,0.00,meteohub,2013-01-03 07:56:00,